sensor_id;sensor_type;location;lat;lon;timestamp;P1;durP1;ratioP1;P2;durP2;ratioP2
21657;SDS011;10990;48.174;9.782;2023-01-01T00:01:15;63.27;;;37.23;;
21657;SDS011;10990;48.174;9.782;2023-01-01T00:03:42;81.00;;;46.20;;
21657;SDS011;10990;48.174;9.782;2023-01-01T00:06:10;90.57;;;49.57;;
21657;SDS011;10990;48.174;9.782;2023-01-01T00:08:39;72.80;;;42.63;;
21657;SDS011;10990;48.174;9.782;2023-01-01T00:11:06;72.07;;;41.57;;
21657;SDS011;10990;48.174;9.782;2023-01-01T00:13:36;95.37;;;49.50;;
21657;SDS011;10990;48.174;9.782;2023-01-01T00:16:04;98.43;;;53.33;;
21657;SDS011;10990;48.174;9.782;2023-01-01T00:18:32;96.90;;;52.00;;
21657;SDS011;10990;48.174;9.782;2023-01-01T00:21:02;105.00;;;56.73;;
21657;SDS011;10990;48.174;9.782;2023-01-01T00:23:29;103.30;;;56.13;;
21657;SDS011;10990;48.174;9.782;2023-01-01T00:25:56;86.83;;;47.13;;
21657;SDS011;10990;48.174;9.782;2023-01-01T00:28:23;92.87;;;50.20;;
21657;SDS011;10990;48.174;9.782;2023-01-01T00:30:50;86.97;;;47.13;;
21657;SDS011;10990;48.174;9.782;2023-01-01T00:33:17;86.97;;;48.27;;
21657;SDS011;10990;48.174;9.782;2023-01-01T00:35:45;81.30;;;46.50;;
21657;SDS011;10990;48.174;9.782;2023-01-01T00:38:11;83.23;;;46.70;;
21657;SDS011;10990;48.174;9.782;2023-01-01T00:40:38;73.57;;;42.00;;
21657;SDS011;10990;48.174;9.782;2023-01-01T00:43:05;82.53;;;46.40;;
21657;SDS011;10990;48.174;9.782;2023-01-01T00:45:32;84.57;;;47.17;;
21657;SDS011;10990;48.174;9.782;2023-01-01T00:47:58;74.80;;;42.47;;
21657;SDS011;10990;48.174;9.782;2023-01-01T00:50:25;88.80;;;49.50;;
21657;SDS011;10990;48.174;9.782;2023-01-01T00:52:53;81.50;;;44.30;;
21657;SDS011;10990;48.174;9.782;2023-01-01T00:55:20;73.77;;;42.87;;
21657;SDS011;10990;48.174;9.782;2023-01-01T00:57:46;79.73;;;43.90;;
21657;SDS011;10990;48.174;9.782;2023-01-01T01:00:13;73.40;;;41.30;;
21657;SDS011;10990;48.174;9.782;2023-01-01T01:02:41;74.67;;;41.90;;
21657;SDS011;10990;48.174;9.782;2023-01-01T01:05:08;80.10;;;44.10;;
21657;SDS011;10990;48.174;9.782;2023-01-01T01:07:35;70.10;;;39.33;;
21657;SDS011;10990;48.174;9.782;2023-01-01T01:10:04;71.57;;;40.30;;
21657;SDS011;10990;48.174;9.782;2023-01-01T01:12:32;64.00;;;36.63;;
21657;SDS011;10990;48.174;9.782;2023-01-01T01:14:59;79.70;;;42.73;;
21657;SDS011;10990;48.174;9.782;2023-01-01T01:17:25;76.77;;;44.03;;
21657;SDS011;10990;48.174;9.782;2023-01-01T01:19:53;66.03;;;38.70;;
21657;SDS011;10990;48.174;9.782;2023-01-01T01:22:20;73.90;;;40.70;;
21657;SDS011;10990;48.174;9.782;2023-01-01T01:24:47;73.40;;;41.07;;
21657;SDS011;10990;48.174;9.782;2023-01-01T01:27:15;69.50;;;40.40;;
21657;SDS011;10990;48.174;9.782;2023-01-01T01:29:42;65.87;;;38.33;;
21657;SDS011;10990;48.174;9.782;2023-01-01T01:32:09;63.03;;;35.23;;
21657;SDS011;10990;48.174;9.782;2023-01-01T01:34:36;57.87;;;34.00;;
21657;SDS011;10990;48.174;9.782;2023-01-01T01:37:03;57.13;;;33.73;;
21657;SDS011;10990;48.174;9.782;2023-01-01T01:39:30;58.50;;;34.10;;
21657;SDS011;10990;48.174;9.782;2023-01-01T01:41:57;72.43;;;40.80;;
21657;SDS011;10990;48.174;9.782;2023-01-01T01:47:19;57.53;;;34.33;;
21657;SDS011;10990;48.174;9.782;2023-01-01T01:49:50;64.77;;;36.23;;
21657;SDS011;10990;48.174;9.782;2023-01-01T01:52:20;49.00;;;31.27;;
21657;SDS011;10990;48.174;9.782;2023-01-01T01:54:47;58.90;;;33.57;;
21657;SDS011;10990;48.174;9.782;2023-01-01T01:57:14;59.83;;;34.63;;
21657;SDS011;10990;48.174;9.782;2023-01-01T01:59:42;64.83;;;35.87;;
21657;SDS011;10990;48.174;9.782;2023-01-01T02:02:15;60.20;;;34.80;;
21657;SDS011;10990;48.174;9.782;2023-01-01T02:04:48;64.00;;;35.70;;
21657;SDS011;10990;48.174;9.782;2023-01-01T02:07:15;56.50;;;33.63;;
21657;SDS011;10990;48.174;9.782;2023-01-01T02:09:43;54.03;;;31.87;;
21657;SDS011;10990;48.174;9.782;2023-01-01T02:12:10;52.60;;;30.53;;
21657;SDS011;10990;48.174;9.782;2023-01-01T02:14:37;44.83;;;27.33;;
21657;SDS011;10990;48.174;9.782;2023-01-01T02:17:06;43.90;;;25.07;;
21657;SDS011;10990;48.174;9.782;2023-01-01T02:19:43;37.77;;;22.30;;
21657;SDS011;10990;48.174;9.782;2023-01-01T02:22:21;38.03;;;22.20;;
21657;SDS011;10990;48.174;9.782;2023-01-01T02:25:01;32.53;;;20.03;;
21657;SDS011;10990;48.174;9.782;2023-01-01T02:27:37;29.57;;;16.87;;
21657;SDS011;10990;48.174;9.782;2023-01-01T02:30:14;34.47;;;19.60;;
21657;SDS011;10990;48.174;9.782;2023-01-01T02:32:43;41.63;;;22.63;;
21657;SDS011;10990;48.174;9.782;2023-01-01T02:35:13;39.13;;;23.03;;
21657;SDS011;10990;48.174;9.782;2023-01-01T02:38:01;47.23;;;26.73;;
21657;SDS011;10990;48.174;9.782;2023-01-01T02:40:33;41.43;;;23.53;;
21657;SDS011;10990;48.174;9.782;2023-01-01T02:43:02;38.17;;;22.97;;
21657;SDS011;10990;48.174;9.782;2023-01-01T02:45:31;47.03;;;24.97;;
21657;SDS011;10990;48.174;9.782;2023-01-01T02:48:01;39.40;;;21.77;;
21657;SDS011;10990;48.174;9.782;2023-01-01T02:50:29;41.43;;;23.47;;
21657;SDS011;10990;48.174;9.782;2023-01-01T02:55:53;43.00;;;23.47;;
21657;SDS011;10990;48.174;9.782;2023-01-01T02:58:26;41.63;;;22.87;;
21657;SDS011;10990;48.174;9.782;2023-01-01T03:01:20;42.20;;;25.20;;
21657;SDS011;10990;48.174;9.782;2023-01-01T03:03:56;39.87;;;22.20;;
21657;SDS011;10990;48.174;9.782;2023-01-01T03:06:32;35.17;;;20.97;;
21657;SDS011;10990;48.174;9.782;2023-01-01T03:09:08;37.50;;;22.33;;
21657;SDS011;10990;48.174;9.782;2023-01-01T03:11:43;37.30;;;21.13;;
21657;SDS011;10990;48.174;9.782;2023-01-01T03:14:18;39.40;;;22.07;;
21657;SDS011;10990;48.174;9.782;2023-01-01T03:16:51;36.17;;;20.30;;
21657;SDS011;10990;48.174;9.782;2023-01-01T03:19:23;32.83;;;18.43;;
21657;SDS011;10990;48.174;9.782;2023-01-01T03:21:52;33.97;;;19.27;;
21657;SDS011;10990;48.174;9.782;2023-01-01T03:24:23;39.93;;;21.37;;
21657;SDS011;10990;48.174;9.782;2023-01-01T03:26:56;38.83;;;18.40;;
21657;SDS011;10990;48.174;9.782;2023-01-01T03:29:27;33.60;;;19.37;;
21657;SDS011;10990;48.174;9.782;2023-01-01T03:31:58;34.73;;;19.37;;
21657;SDS011;10990;48.174;9.782;2023-01-01T03:34:29;34.83;;;20.53;;
21657;SDS011;10990;48.174;9.782;2023-01-01T03:36:59;36.20;;;18.90;;
21657;SDS011;10990;48.174;9.782;2023-01-01T03:39:33;34.27;;;18.60;;
21657;SDS011;10990;48.174;9.782;2023-01-01T03:42:05;35.23;;;18.93;;
21657;SDS011;10990;48.174;9.782;2023-01-01T03:44:40;32.87;;;17.40;;
21657;SDS011;10990;48.174;9.782;2023-01-01T03:47:12;29.00;;;16.80;;
21657;SDS011;10990;48.174;9.782;2023-01-01T03:49:39;33.17;;;17.67;;
21657;SDS011;10990;48.174;9.782;2023-01-01T03:52:12;35.07;;;18.87;;
21657;SDS011;10990;48.174;9.782;2023-01-01T03:54:48;33.27;;;18.03;;
21657;SDS011;10990;48.174;9.782;2023-01-01T03:57:21;32.80;;;17.63;;
21657;SDS011;10990;48.174;9.782;2023-01-01T03:59:56;30.57;;;16.80;;
21657;SDS011;10990;48.174;9.782;2023-01-01T04:02:39;33.20;;;17.87;;
21657;SDS011;10990;48.174;9.782;2023-01-01T04:05:10;30.00;;;16.07;;
21657;SDS011;10990;48.174;9.782;2023-01-01T04:07:38;29.50;;;16.37;;
21657;SDS011;10990;48.174;9.782;2023-01-01T04:10:05;27.67;;;16.00;;
21657;SDS011;10990;48.174;9.782;2023-01-01T04:12:43;31.77;;;16.00;;
21657;SDS011;10990;48.174;9.782;2023-01-01T04:15:11;29.67;;;16.47;;
21657;SDS011;10990;48.174;9.782;2023-01-01T04:17:39;30.03;;;16.63;;
21657;SDS011;10990;48.174;9.782;2023-01-01T04:20:06;30.90;;;16.70;;
21657;SDS011;10990;48.174;9.782;2023-01-01T04:22:34;30.93;;;16.03;;
21657;SDS011;10990;48.174;9.782;2023-01-01T04:25:00;28.03;;;15.80;;
21657;SDS011;10990;48.174;9.782;2023-01-01T04:27:27;25.57;;;14.30;;
21657;SDS011;10990;48.174;9.782;2023-01-01T04:29:54;28.77;;;14.83;;
21657;SDS011;10990;48.174;9.782;2023-01-01T04:32:21;28.50;;;14.63;;
21657;SDS011;10990;48.174;9.782;2023-01-01T04:34:49;25.77;;;14.53;;
21657;SDS011;10990;48.174;9.782;2023-01-01T04:37:16;26.30;;;14.23;;
21657;SDS011;10990;48.174;9.782;2023-01-01T04:39:43;25.20;;;13.60;;
21657;SDS011;10990;48.174;9.782;2023-01-01T04:42:09;25.80;;;13.53;;
21657;SDS011;10990;48.174;9.782;2023-01-01T04:44:36;26.57;;;14.53;;
21657;SDS011;10990;48.174;9.782;2023-01-01T04:47:03;25.93;;;14.33;;
21657;SDS011;10990;48.174;9.782;2023-01-01T04:49:30;24.90;;;13.70;;
21657;SDS011;10990;48.174;9.782;2023-01-01T04:51:58;26.40;;;15.23;;
21657;SDS011;10990;48.174;9.782;2023-01-01T04:54:25;24.03;;;13.33;;
21657;SDS011;10990;48.174;9.782;2023-01-01T04:56:51;24.70;;;13.87;;
21657;SDS011;10990;48.174;9.782;2023-01-01T04:59:18;23.37;;;12.23;;
21657;SDS011;10990;48.174;9.782;2023-01-01T05:01:45;25.23;;;13.80;;
21657;SDS011;10990;48.174;9.782;2023-01-01T05:04:12;23.93;;;12.90;;
21657;SDS011;10990;48.174;9.782;2023-01-01T05:06:40;23.30;;;12.60;;
21657;SDS011;10990;48.174;9.782;2023-01-01T05:09:09;23.90;;;13.60;;
21657;SDS011;10990;48.174;9.782;2023-01-01T05:11:36;27.17;;;14.63;;
21657;SDS011;10990;48.174;9.782;2023-01-01T05:14:03;25.47;;;13.67;;
21657;SDS011;10990;48.174;9.782;2023-01-01T05:16:30;23.73;;;12.73;;
21657;SDS011;10990;48.174;9.782;2023-01-01T05:18:58;25.57;;;13.27;;
21657;SDS011;10990;48.174;9.782;2023-01-01T05:21:26;27.47;;;14.07;;
21657;SDS011;10990;48.174;9.782;2023-01-01T05:23:56;26.17;;;14.33;;
21657;SDS011;10990;48.174;9.782;2023-01-01T05:26:26;27.33;;;13.73;;
21657;SDS011;10990;48.174;9.782;2023-01-01T05:28:54;28.40;;;13.83;;
21657;SDS011;10990;48.174;9.782;2023-01-01T05:31:22;26.63;;;13.70;;
21657;SDS011;10990;48.174;9.782;2023-01-01T05:33:51;24.87;;;13.30;;
21657;SDS011;10990;48.174;9.782;2023-01-01T05:36:19;23.47;;;12.53;;
21657;SDS011;10990;48.174;9.782;2023-01-01T05:38:47;23.67;;;12.57;;
21657;SDS011;10990;48.174;9.782;2023-01-01T05:41:15;22.47;;;12.40;;
21657;SDS011;10990;48.174;9.782;2023-01-01T05:43:44;24.27;;;12.83;;
21657;SDS011;10990;48.174;9.782;2023-01-01T05:46:13;25.90;;;13.20;;
21657;SDS011;10990;48.174;9.782;2023-01-01T05:48:42;27.27;;;14.57;;
21657;SDS011;10990;48.174;9.782;2023-01-01T05:51:09;23.93;;;12.20;;
21657;SDS011;10990;48.174;9.782;2023-01-01T05:53:40;23.43;;;12.80;;
21657;SDS011;10990;48.174;9.782;2023-01-01T05:56:08;26.60;;;13.63;;
21657;SDS011;10990;48.174;9.782;2023-01-01T05:58:36;24.90;;;14.07;;
21657;SDS011;10990;48.174;9.782;2023-01-01T06:01:08;25.23;;;13.13;;
21657;SDS011;10990;48.174;9.782;2023-01-01T06:03:37;26.60;;;12.93;;
21657;SDS011;10990;48.174;9.782;2023-01-01T06:06:04;23.90;;;13.40;;
21657;SDS011;10990;48.174;9.782;2023-01-01T06:08:31;21.13;;;11.87;;
21657;SDS011;10990;48.174;9.782;2023-01-01T06:10:59;25.60;;;13.30;;
21657;SDS011;10990;48.174;9.782;2023-01-01T06:13:26;24.93;;;13.83;;
21657;SDS011;10990;48.174;9.782;2023-01-01T06:15:53;23.57;;;13.10;;
21657;SDS011;10990;48.174;9.782;2023-01-01T06:18:22;22.43;;;11.67;;
21657;SDS011;10990;48.174;9.782;2023-01-01T06:20:49;19.53;;;11.50;;
21657;SDS011;10990;48.174;9.782;2023-01-01T06:23:16;21.13;;;11.87;;
21657;SDS011;10990;48.174;9.782;2023-01-01T06:25:43;21.50;;;11.03;;
21657;SDS011;10990;48.174;9.782;2023-01-01T06:28:11;20.33;;;10.97;;
21657;SDS011;10990;48.174;9.782;2023-01-01T06:30:38;23.53;;;12.73;;
21657;SDS011;10990;48.174;9.782;2023-01-01T06:33:05;24.33;;;12.53;;
21657;SDS011;10990;48.174;9.782;2023-01-01T06:35:33;23.23;;;11.90;;
21657;SDS011;10990;48.174;9.782;2023-01-01T06:38:00;24.43;;;12.60;;
21657;SDS011;10990;48.174;9.782;2023-01-01T06:40:27;25.17;;;13.70;;
21657;SDS011;10990;48.174;9.782;2023-01-01T06:42:54;24.60;;;13.70;;
21657;SDS011;10990;48.174;9.782;2023-01-01T06:45:21;24.23;;;12.63;;
21657;SDS011;10990;48.174;9.782;2023-01-01T06:47:48;23.60;;;13.17;;
21657;SDS011;10990;48.174;9.782;2023-01-01T06:50:14;25.10;;;12.30;;
21657;SDS011;10990;48.174;9.782;2023-01-01T06:52:43;21.40;;;11.80;;
21657;SDS011;10990;48.174;9.782;2023-01-01T06:55:11;23.20;;;11.87;;
21657;SDS011;10990;48.174;9.782;2023-01-01T06:57:38;22.47;;;12.27;;
21657;SDS011;10990;48.174;9.782;2023-01-01T07:00:05;23.67;;;12.57;;
21657;SDS011;10990;48.174;9.782;2023-01-01T07:02:33;20.50;;;11.37;;
21657;SDS011;10990;48.174;9.782;2023-01-01T07:04:59;23.47;;;12.50;;
21657;SDS011;10990;48.174;9.782;2023-01-01T07:07:26;22.40;;;11.87;;
21657;SDS011;10990;48.174;9.782;2023-01-01T07:09:54;18.97;;;10.60;;
21657;SDS011;10990;48.174;9.782;2023-01-01T07:12:21;19.50;;;10.73;;
21657;SDS011;10990;48.174;9.782;2023-01-01T07:14:47;19.83;;;10.90;;
21657;SDS011;10990;48.174;9.782;2023-01-01T07:17:14;20.27;;;10.60;;
21657;SDS011;10990;48.174;9.782;2023-01-01T07:19:41;18.03;;;9.97;;
21657;SDS011;10990;48.174;9.782;2023-01-01T07:22:07;20.43;;;10.47;;
21657;SDS011;10990;48.174;9.782;2023-01-01T07:24:35;17.73;;;9.90;;
21657;SDS011;10990;48.174;9.782;2023-01-01T07:27:04;15.97;;;9.50;;
21657;SDS011;10990;48.174;9.782;2023-01-01T07:29:31;17.87;;;9.70;;
21657;SDS011;10990;48.174;9.782;2023-01-01T07:32:00;17.67;;;8.73;;
21657;SDS011;10990;48.174;9.782;2023-01-01T07:34:28;16.10;;;8.60;;
21657;SDS011;10990;48.174;9.782;2023-01-01T07:36:54;15.50;;;8.37;;
21657;SDS011;10990;48.174;9.782;2023-01-01T07:39:21;14.97;;;8.20;;
21657;SDS011;10990;48.174;9.782;2023-01-01T07:41:48;13.97;;;8.03;;
21657;SDS011;10990;48.174;9.782;2023-01-01T07:44:16;14.20;;;7.50;;
21657;SDS011;10990;48.174;9.782;2023-01-01T07:46:42;15.00;;;8.50;;
21657;SDS011;10990;48.174;9.782;2023-01-01T07:49:09;13.27;;;7.63;;
21657;SDS011;10990;48.174;9.782;2023-01-01T07:51:36;13.67;;;7.93;;
21657;SDS011;10990;48.174;9.782;2023-01-01T07:54:03;14.23;;;8.20;;
21657;SDS011;10990;48.174;9.782;2023-01-01T07:56:29;15.40;;;7.73;;
21657;SDS011;10990;48.174;9.782;2023-01-01T07:58:56;12.17;;;7.10;;
21657;SDS011;10990;48.174;9.782;2023-01-01T08:01:24;15.43;;;8.60;;
21657;SDS011;10990;48.174;9.782;2023-01-01T08:03:51;13.67;;;8.03;;
21657;SDS011;10990;48.174;9.782;2023-01-01T08:06:18;15.10;;;8.30;;
21657;SDS011;10990;48.174;9.782;2023-01-01T08:08:46;14.17;;;8.03;;
21657;SDS011;10990;48.174;9.782;2023-01-01T08:11:13;13.80;;;7.70;;
21657;SDS011;10990;48.174;9.782;2023-01-01T08:13:40;10.10;;;5.97;;
21657;SDS011;10990;48.174;9.782;2023-01-01T08:16:06;10.43;;;5.33;;
21657;SDS011;10990;48.174;9.782;2023-01-01T08:18:35;10.67;;;5.20;;
21657;SDS011;10990;48.174;9.782;2023-01-01T08:21:02;7.67;;;4.37;;
21657;SDS011;10990;48.174;9.782;2023-01-01T08:23:29;10.03;;;4.83;;
21657;SDS011;10990;48.174;9.782;2023-01-01T08:25:57;8.67;;;4.80;;
21657;SDS011;10990;48.174;9.782;2023-01-01T08:28:25;8.57;;;4.40;;
21657;SDS011;10990;48.174;9.782;2023-01-01T08:30:52;8.67;;;4.77;;
21657;SDS011;10990;48.174;9.782;2023-01-01T08:33:19;10.33;;;4.77;;
21657;SDS011;10990;48.174;9.782;2023-01-01T08:35:48;7.97;;;4.90;;
21657;SDS011;10990;48.174;9.782;2023-01-01T08:38:15;6.80;;;3.77;;
21657;SDS011;10990;48.174;9.782;2023-01-01T08:40:43;8.77;;;3.63;;
21657;SDS011;10990;48.174;9.782;2023-01-01T08:43:10;7.60;;;3.60;;
21657;SDS011;10990;48.174;9.782;2023-01-01T08:45:36;5.33;;;3.43;;
21657;SDS011;10990;48.174;9.782;2023-01-01T08:48:03;6.33;;;3.53;;
21657;SDS011;10990;48.174;9.782;2023-01-01T08:50:30;5.18;;;3.28;;
21657;SDS011;10990;48.174;9.782;2023-01-01T08:52:58;8.00;;;3.72;;
21657;SDS011;10990;48.174;9.782;2023-01-01T08:55:25;5.22;;;2.85;;
21657;SDS011;10990;48.174;9.782;2023-01-01T08:57:52;5.60;;;2.90;;
21657;SDS011;10990;48.174;9.782;2023-01-01T09:00:19;5.00;;;2.65;;
21657;SDS011;10990;48.174;9.782;2023-01-01T09:02:46;6.93;;;3.45;;
21657;SDS011;10990;48.174;9.782;2023-01-01T09:05:12;5.18;;;3.03;;
21657;SDS011;10990;48.174;9.782;2023-01-01T09:07:39;5.32;;;2.90;;
21657;SDS011;10990;48.174;9.782;2023-01-01T09:10:08;3.63;;;2.60;;
21657;SDS011;10990;48.174;9.782;2023-01-01T09:12:34;4.07;;;2.22;;
21657;SDS011;10990;48.174;9.782;2023-01-01T09:15:01;2.58;;;2.00;;
21657;SDS011;10990;48.174;9.782;2023-01-01T09:17:28;3.60;;;2.10;;
21657;SDS011;10990;48.174;9.782;2023-01-01T09:19:55;5.43;;;2.15;;
21657;SDS011;10990;48.174;9.782;2023-01-01T09:22:22;3.90;;;2.00;;
21657;SDS011;10990;48.174;9.782;2023-01-01T09:24:48;3.35;;;1.90;;
21657;SDS011;10990;48.174;9.782;2023-01-01T09:27:17;2.97;;;1.90;;
21657;SDS011;10990;48.174;9.782;2023-01-01T09:29:43;3.38;;;1.95;;
21657;SDS011;10990;48.174;9.782;2023-01-01T09:32:10;4.70;;;1.80;;
21657;SDS011;10990;48.174;9.782;2023-01-01T09:34:37;4.40;;;2.13;;
21657;SDS011;10990;48.174;9.782;2023-01-01T09:37:03;4.20;;;2.20;;
21657;SDS011;10990;48.174;9.782;2023-01-01T09:39:30;3.60;;;1.75;;
21657;SDS011;10990;48.174;9.782;2023-01-01T09:42:03;4.82;;;1.60;;
21657;SDS011;10990;48.174;9.782;2023-01-01T09:44:48;1.90;;;1.65;;
21657;SDS011;10990;48.174;9.782;2023-01-01T09:47:28;2.88;;;1.90;;
21657;SDS011;10990;48.174;9.782;2023-01-01T09:49:59;2.08;;;1.70;;
21657;SDS011;10990;48.174;9.782;2023-01-01T09:52:32;2.45;;;1.67;;
21657;SDS011;10990;48.174;9.782;2023-01-01T09:55:10;5.35;;;1.80;;
21657;SDS011;10990;48.174;9.782;2023-01-01T09:57:41;2.85;;;1.75;;
21657;SDS011;10990;48.174;9.782;2023-01-01T10:00:13;3.47;;;1.73;;
21657;SDS011;10990;48.174;9.782;2023-01-01T10:02:43;3.83;;;1.67;;
21657;SDS011;10990;48.174;9.782;2023-01-01T10:05:25;3.42;;;1.67;;
21657;SDS011;10990;48.174;9.782;2023-01-01T10:07:59;2.53;;;1.52;;
21657;SDS011;10990;48.174;9.782;2023-01-01T10:10:33;2.95;;;1.63;;
21657;SDS011;10990;48.174;9.782;2023-01-01T10:13:06;3.00;;;1.60;;
21657;SDS011;10990;48.174;9.782;2023-01-01T10:15:43;3.42;;;1.77;;
21657;SDS011;10990;48.174;9.782;2023-01-01T10:18:19;2.72;;;1.50;;
21657;SDS011;10990;48.174;9.782;2023-01-01T10:20:51;2.65;;;1.60;;
21657;SDS011;10990;48.174;9.782;2023-01-01T10:23:24;2.05;;;1.58;;
21657;SDS011;10990;48.174;9.782;2023-01-01T10:25:54;2.63;;;1.60;;
21657;SDS011;10990;48.174;9.782;2023-01-01T10:28:24;3.25;;;1.70;;
21657;SDS011;10990;48.174;9.782;2023-01-01T10:31:00;3.63;;;1.60;;
21657;SDS011;10990;48.174;9.782;2023-01-01T10:33:40;2.05;;;1.50;;
21657;SDS011;10990;48.174;9.782;2023-01-01T10:36:07;3.28;;;1.50;;
21657;SDS011;10990;48.174;9.782;2023-01-01T10:38:38;2.53;;;1.30;;
21657;SDS011;10990;48.174;9.782;2023-01-01T10:41:05;2.35;;;1.58;;
21657;SDS011;10990;48.174;9.782;2023-01-01T10:43:33;2.45;;;1.50;;
21657;SDS011;10990;48.174;9.782;2023-01-01T10:46:03;5.72;;;1.52;;
21657;SDS011;10990;48.174;9.782;2023-01-01T10:48:32;1.88;;;1.50;;
21657;SDS011;10990;48.174;9.782;2023-01-01T10:51:00;2.90;;;1.60;;
21657;SDS011;10990;48.174;9.782;2023-01-01T10:53:30;3.55;;;1.50;;
21657;SDS011;10990;48.174;9.782;2023-01-01T10:56:02;3.03;;;1.45;;
21657;SDS011;10990;48.174;9.782;2023-01-01T10:58:36;2.60;;;1.58;;
21657;SDS011;10990;48.174;9.782;2023-01-01T11:01:07;2.28;;;1.40;;
21657;SDS011;10990;48.174;9.782;2023-01-01T11:03:35;5.03;;;1.88;;
21657;SDS011;10990;48.174;9.782;2023-01-01T11:06:04;1.80;;;1.48;;
21657;SDS011;10990;48.174;9.782;2023-01-01T11:08:36;2.97;;;1.73;;
21657;SDS011;10990;48.174;9.782;2023-01-01T11:11:05;4.57;;;1.75;;
21657;SDS011;10990;48.174;9.782;2023-01-01T11:13:31;2.90;;;1.65;;
21657;SDS011;10990;48.174;9.782;2023-01-01T11:16:00;2.55;;;1.80;;
21657;SDS011;10990;48.174;9.782;2023-01-01T11:18:29;3.63;;;2.17;;
21657;SDS011;10990;48.174;9.782;2023-01-01T11:21:00;3.85;;;1.73;;
21657;SDS011;10990;48.174;9.782;2023-01-01T11:23:29;3.22;;;1.73;;
21657;SDS011;10990;48.174;9.782;2023-01-01T11:26:03;4.20;;;1.73;;
21657;SDS011;10990;48.174;9.782;2023-01-01T11:28:31;2.35;;;1.65;;
21657;SDS011;10990;48.174;9.782;2023-01-01T11:31:04;2.95;;;1.92;;
21657;SDS011;10990;48.174;9.782;2023-01-01T11:33:47;4.60;;;2.35;;
21657;SDS011;10990;48.174;9.782;2023-01-01T11:36:20;3.40;;;2.00;;
21657;SDS011;10990;48.174;9.782;2023-01-01T11:38:49;3.50;;;1.92;;
21657;SDS011;10990;48.174;9.782;2023-01-01T11:41:30;4.50;;;2.20;;
21657;SDS011;10990;48.174;9.782;2023-01-01T11:44:06;3.20;;;2.00;;
21657;SDS011;10990;48.174;9.782;2023-01-01T11:46:36;2.95;;;2.00;;
21657;SDS011;10990;48.174;9.782;2023-01-01T11:49:11;4.63;;;2.28;;
21657;SDS011;10990;48.174;9.782;2023-01-01T11:51:40;4.03;;;1.83;;
21657;SDS011;10990;48.174;9.782;2023-01-01T11:54:08;2.50;;;1.63;;
21657;SDS011;10990;48.174;9.782;2023-01-01T11:56:37;2.25;;;1.60;;
21657;SDS011;10990;48.174;9.782;2023-01-01T11:59:05;3.13;;;1.60;;
21657;SDS011;10990;48.174;9.782;2023-01-01T12:01:40;2.72;;;1.58;;
21657;SDS011;10990;48.174;9.782;2023-01-01T12:04:15;3.53;;;1.30;;
21657;SDS011;10990;48.174;9.782;2023-01-01T12:06:46;2.47;;;1.40;;
21657;SDS011;10990;48.174;9.782;2023-01-01T12:09:18;3.63;;;1.70;;
21657;SDS011;10990;48.174;9.782;2023-01-01T12:11:50;2.65;;;1.60;;
21657;SDS011;10990;48.174;9.782;2023-01-01T12:14:24;4.28;;;1.50;;
21657;SDS011;10990;48.174;9.782;2023-01-01T12:16:59;3.83;;;2.20;;
21657;SDS011;10990;48.174;9.782;2023-01-01T12:19:34;2.45;;;1.48;;
21657;SDS011;10990;48.174;9.782;2023-01-01T12:22:07;3.60;;;1.88;;
21657;SDS011;10990;48.174;9.782;2023-01-01T12:24:40;4.80;;;2.72;;
21657;SDS011;10990;48.174;9.782;2023-01-01T12:27:13;3.47;;;1.70;;
21657;SDS011;10990;48.174;9.782;2023-01-01T12:29:57;4.10;;;2.20;;
21657;SDS011;10990;48.174;9.782;2023-01-01T12:32:34;3.55;;;2.00;;
21657;SDS011;10990;48.174;9.782;2023-01-01T12:35:19;5.07;;;2.35;;
21657;SDS011;10990;48.174;9.782;2023-01-01T12:38:00;3.53;;;1.40;;
21657;SDS011;10990;48.174;9.782;2023-01-01T12:40:41;3.58;;;1.40;;
21657;SDS011;10990;48.174;9.782;2023-01-01T12:43:16;2.30;;;1.58;;
21657;SDS011;10990;48.174;9.782;2023-01-01T12:51:54;3.00;;;1.40;;
21657;SDS011;10990;48.174;9.782;2023-01-01T12:54:34;2.65;;;1.42;;
21657;SDS011;10990;48.174;9.782;2023-01-01T12:57:22;1.70;;;1.30;;
21657;SDS011;10990;48.174;9.782;2023-01-01T12:59:56;1.23;;;1.20;;
21657;SDS011;10990;48.174;9.782;2023-01-01T13:02:27;4.05;;;1.40;;
21657;SDS011;10990;48.174;9.782;2023-01-01T13:04:59;3.40;;;1.42;;
21657;SDS011;10990;48.174;9.782;2023-01-01T13:07:30;2.33;;;1.30;;
21657;SDS011;10990;48.174;9.782;2023-01-01T13:10:04;4.80;;;1.13;;
21657;SDS011;10990;48.174;9.782;2023-01-01T13:12:34;2.85;;;1.27;;
21657;SDS011;10990;48.174;9.782;2023-01-01T13:18:02;1.67;;;1.17;;
21657;SDS011;10990;48.174;9.782;2023-01-01T13:20:31;1.58;;;1.30;;
21657;SDS011;10990;48.174;9.782;2023-01-01T13:23:04;1.60;;;1.10;;
21657;SDS011;10990;48.174;9.782;2023-01-01T13:25:31;1.50;;;1.05;;
21657;SDS011;10990;48.174;9.782;2023-01-01T13:28:00;2.70;;;1.10;;
21657;SDS011;10990;48.174;9.782;2023-01-01T13:30:49;1.67;;;0.98;;
21657;SDS011;10990;48.174;9.782;2023-01-01T13:33:18;2.78;;;1.17;;
21657;SDS011;10990;48.174;9.782;2023-01-01T13:38:58;2.55;;;1.20;;
21657;SDS011;10990;48.174;9.782;2023-01-01T13:41:32;2.25;;;1.40;;
21657;SDS011;10990;48.174;9.782;2023-01-01T13:44:10;4.35;;;1.60;;
21657;SDS011;10990;48.174;9.782;2023-01-01T13:46:44;2.28;;;1.52;;
21657;SDS011;10990;48.174;9.782;2023-01-01T13:49:24;4.70;;;1.90;;
21657;SDS011;10990;48.174;9.782;2023-01-01T13:58:16;3.00;;;1.92;;
21657;SDS011;10990;48.174;9.782;2023-01-01T14:04:12;3.90;;;1.63;;
21657;SDS011;10990;48.174;9.782;2023-01-01T14:06:53;2.10;;;1.77;;
21657;SDS011;10990;48.174;9.782;2023-01-01T14:09:23;2.35;;;1.77;;
21657;SDS011;10990;48.174;9.782;2023-01-01T14:11:52;3.05;;;1.88;;
21657;SDS011;10990;48.174;9.782;2023-01-01T14:14:23;2.72;;;1.55;;
21657;SDS011;10990;48.174;9.782;2023-01-01T14:16:52;5.63;;;1.98;;
21657;SDS011;10990;48.174;9.782;2023-01-01T14:19:22;3.55;;;1.38;;
21657;SDS011;10990;48.174;9.782;2023-01-01T14:21:49;4.50;;;1.40;;
21657;SDS011;10990;48.174;9.782;2023-01-01T14:24:17;2.78;;;1.50;;
21657;SDS011;10990;48.174;9.782;2023-01-01T14:26:46;2.05;;;1.35;;
21657;SDS011;10990;48.174;9.782;2023-01-01T14:29:17;2.65;;;1.70;;
21657;SDS011;10990;48.174;9.782;2023-01-01T14:31:47;2.88;;;1.70;;
21657;SDS011;10990;48.174;9.782;2023-01-01T14:34:14;3.28;;;1.77;;
21657;SDS011;10990;48.174;9.782;2023-01-01T14:36:48;4.20;;;1.70;;
21657;SDS011;10990;48.174;9.782;2023-01-01T14:39:22;3.30;;;2.00;;
21657;SDS011;10990;48.174;9.782;2023-01-01T14:41:52;4.00;;;2.20;;
21657;SDS011;10990;48.174;9.782;2023-01-01T14:44:23;3.67;;;2.30;;
21657;SDS011;10990;48.174;9.782;2023-01-01T14:46:55;3.10;;;2.10;;
21657;SDS011;10990;48.174;9.782;2023-01-01T14:49:23;3.95;;;2.00;;
21657;SDS011;10990;48.174;9.782;2023-01-01T14:51:54;3.13;;;2.10;;
21657;SDS011;10990;48.174;9.782;2023-01-01T14:54:28;3.47;;;2.00;;
21657;SDS011;10990;48.174;9.782;2023-01-01T14:56:57;2.85;;;2.17;;
21657;SDS011;10990;48.174;9.782;2023-01-01T14:59:27;7.72;;;3.05;;
21657;SDS011;10990;48.174;9.782;2023-01-01T15:01:59;6.07;;;2.67;;
21657;SDS011;10990;48.174;9.782;2023-01-01T15:04:27;5.63;;;2.80;;
21657;SDS011;10990;48.174;9.782;2023-01-01T15:06:54;6.97;;;2.83;;
21657;SDS011;10990;48.174;9.782;2023-01-01T15:09:22;6.47;;;3.08;;
21657;SDS011;10990;48.174;9.782;2023-01-01T15:11:50;4.93;;;2.70;;
21657;SDS011;10990;48.174;9.782;2023-01-01T15:14:32;4.95;;;2.53;;
21657;SDS011;10990;48.174;9.782;2023-01-01T15:17:02;4.53;;;2.30;;